Time;durP1;ratioP1;P1;durP2;ratioP2;P2;SDS_P1;SDS_P2;PMS_P1;PMS_P2;Temp;Humidity;BMP_temperature;BMP_pressure;BME280_temperature;BME280_humidity;BME280_pressure;Samples;Min_cycle;Max_cycle;Signal;HPM_P1;HPM_P2
2021/07/27 00:13:21;;;;;;;3.93;3.53;;;26.20;58.50;;;;;;5947367;23;20956;-88
2021/07/27 00:16:09;;;;;;;4.53;3.80;;;26.20;58.50;;;;;;5948667;24;20607;-88
2021/07/27 00:25:58;;;;;;;;;;;;;;;;;;;;;
2021/07/27 00:39:24;;;;;;;4.40;4.00;;;26.30;58.40;;;;;;6000875;23;20361;-87
2021/07/27 00:42:14;;;;;;;3.80;3.40;;;26.20;58.40;;;;;;5972819;24;20430;-87
2021/07/27 00:45:40;;;;;;;4.17;3.80;;;26.20;58.40;;;;;;5949250;23;20453;-86
2021/07/27 00:51:28;;;;;;;3.70;3.40;;;26.30;58.30;;;;;;5940778;24;20461;-85
2021/07/27 01:00:27;;;;;;;4.50;3.93;;;26.30;58.20;;;;;;5883483;24;20384;-86
2021/07/27 01:03:09;;;;;;;5.93;4.10;;;26.20;58.10;;;;;;5912340;24;20442;-87
2021/07/27 01:05:45;;;;;;;5.13;3.73;;;26.20;58.20;;;;;;5912817;24;20387;-86
2021/07/27 01:08:57;;;;;;;5.03;3.90;;;26.20;58.40;;;;;;5912409;24;20433;-86
2021/07/27 01:12:23;;;;;;;;;;;;;;;;;;;;;
2021/07/27 01:15:41;;;;;;;;;;;;;;;;;;;;;
2021/07/27 01:18:38;;;;;;;;;;;;;;;;;;;;;
2021/07/27 01:40:43;;;;;;;;;;;;;;;;;;;;;
2021/07/27 01:54:28;;;;;;;;;;;;;;;;;;;;;
2021/07/27 01:57:20;;;;;;;3.57;3.27;;;26.00;58.50;;;;;;6077976;23;20410;-88
2021/07/27 02:00:37;;;;;;;;;;;;;;;;;;;;;
2021/07/27 02:03:27;;;;;;;;;;;;;;;;;;;;;
2021/07/27 02:06:23;;;;;;;;;;;;;;;;;;;;;
2021/07/27 02:16:18;;;;;;;4.20;3.70;;;26.10;58.40;;;;;;6080246;23;20901;-88
2021/07/27 02:19:24;;;;;;;4.40;3.47;;;26.10;58.20;;;;;;6080084;23;20748;-87
2021/07/27 02:29:16;;;;;;;3.90;3.50;;;26.00;58.20;;;;;;6227997;22;20359;-87
2021/07/27 02:32:20;;;;;;;4.57;3.90;;;26.00;58.20;;;;;;6200910;23;20373;-87
2021/07/27 02:34:58;;;;;;;10.53;4.63;;;26.00;58.30;;;;;;6195350;23;20457;-87
2021/07/27 02:37:58;;;;;;;6.13;3.90;;;25.90;58.30;;;;;;6202192;23;20382;-88
2021/07/27 02:43:41;;;;;;;4.00;3.70;;;25.90;58.30;;;;;;6287372;22;20395;-87
2021/07/27 02:46:19;;;;;;;4.53;4.00;;;25.90;58.30;;;;;;6264304;22;20364;-87
2021/07/27 02:49:52;;;;;;;;;;;;;;;;;;;;;
2021/07/27 02:56:13;;;;;;;5.07;4.13;;;26.00;58.20;;;;;;6235490;23;20353;-88
2021/07/27 02:59:20;;;;;;;5.10;3.70;;;26.00;58.20;;;;;;6208218;23;20397;-88
2021/07/27 03:02:23;;;;;;;4.20;3.80;;;26.00;58.20;;;;;;6232677;23;20426;-88
2021/07/27 03:05:18;;;;;;;4.30;3.77;;;26.00;58.20;;;;;;6183714;23;20386;-88
2021/07/27 03:08:45;;;;;;;4.20;3.80;;;26.00;58.10;;;;;;6226144;23;20382;-88
2021/07/27 03:12:19;;;;;;;;;;;;;;;;;;;;;
2021/07/27 03:15:29;;;;;;;4.13;3.73;;;26.00;57.90;;;;;;6232140;23;20382;-88
2021/07/27 03:21:42;;;;;;;4.40;3.70;;;26.00;58.10;;;;;;6236108;23;20525;-88
2021/07/27 03:24:55;;;;;;;4.80;4.00;;;26.00;58.10;;;;;;6214588;23;20394;-88
2021/07/27 03:28:02;;;;;;;4.47;4.00;;;25.90;58.00;;;;;;6219233;23;20405;-88
2021/07/27 03:30:43;;;;;;;7.10;3.70;;;25.90;58.10;;;;;;6185135;23;20481;-88
2021/07/27 03:33:33;;;;;;;4.33;3.93;;;25.90;58.00;;;;;;6209223;23;20380;-88
2021/07/27 03:40:12;;;;;;;3.87;3.43;;;25.90;57.90;;;;;;6236617;23;20875;-88
2021/07/27 03:43:16;;;;;;;4.47;4.07;;;25.90;58.10;;;;;;6220826;23;20536;-88
2021/07/27 03:50:05;;;;;;;3.57;3.27;;;25.80;58.30;;;;;;6236790;23;20342;-88
2021/07/27 03:52:56;;;;;;;4.83;3.77;;;25.80;58.20;;;;;;6170594;23;20374;-88
2021/07/27 03:56:00;;;;;;;;;;;;;;;;;;;;;
2021/07/27 04:02:21;;;;;;;4.07;3.67;;;25.80;58.10;;;;;;6147186;23;20448;-88
2021/07/27 04:09:17;;;;;;;;;;;;;;;;;;;;;
2021/07/27 04:15:24;;;;;;;4.60;3.77;;;25.90;57.80;;;;;;6000048;24;20382;-86
2021/07/27 04:18:01;;;;;;;3.80;3.50;;;25.90;57.80;;;;;;5976344;24;20417;-86
2021/07/27 04:20:37;;;;;;;5.13;3.87;;;25.90;57.70;;;;;;6001186;24;20392;-85
2021/07/27 04:23:16;;;;;;;3.43;3.13;;;25.90;57.70;;;;;;5977261;24;20816;-87
2021/07/27 04:26:21;;;;;;;4.33;3.93;;;25.90;57.70;;;;;;5999637;24;20449;-88
2021/07/27 04:29:10;;;;;;;4.43;3.87;;;26.00;57.70;;;;;;6001790;23;20431;-87
2021/07/27 04:32:11;;;;;;;4.00;3.60;;;26.00;57.70;;;;;;5999448;24;20389;-87
2021/07/27 04:35:42;;;;;;;4.10;3.70;;;26.00;57.70;;;;;;5976016;24;20444;-88
2021/07/27 04:38:01;;;;;;;4.20;3.47;;;26.00;57.70;;;;;;5995182;23;20404;-86
2021/07/27 04:40:31;;;;;;;3.80;3.47;;;26.00;57.70;;;;;;6003415;23;20903;-84
2021/07/27 04:43:02;;;;;;;3.57;3.10;;;26.00;57.70;;;;;;6003588;23;20455;-86
2021/07/27 04:45:32;;;;;;;3.87;3.50;;;26.10;57.80;;;;;;6090582;23;20405;-86
2021/07/27 04:48:01;;;;;;;5.03;3.97;;;26.10;57.70;;;;;;6120903;23;20419;-85
2021/07/27 04:50:43;;;;;;;4.30;3.90;;;26.10;57.70;;;;;;6121892;23;20372;-86
2021/07/27 04:53:23;;;;;;;7.20;3.73;;;26.00;57.70;;;;;;6120177;23;20381;-86
2021/07/27 04:59:22;;;;;;;5.43;4.30;;;26.10;57.70;;;;;;6145238;23;20364;-86
2021/07/27 05:01:59;;;;;;;3.70;3.27;;;26.00;57.70;;;;;;6114709;23;20425;-86
2021/07/27 05:04:35;;;;;;;4.13;3.70;;;26.10;57.80;;;;;;6112325;23;20396;-86
2021/07/27 05:07:03;;;;;;;4.07;3.67;;;26.10;57.70;;;;;;6114038;23;20400;-85
2021/07/27 05:09:40;;;;;;;4.53;3.30;;;26.00;57.70;;;;;;6201957;23;20477;-85
2021/07/27 05:12:13;;;;;;;4.53;4.13;;;26.10;57.80;;;;;;6201632;23;20390;-85
2021/07/27 05:14:43;;;;;;;3.97;3.57;;;26.10;57.80;;;;;;6227048;23;20374;-85
2021/07/27 05:17:24;;;;;;;5.57;3.60;;;26.10;57.70;;;;;;6201646;23;20393;-85
2021/07/27 05:19:57;;;;;;;4.90;3.67;;;26.10;57.70;;;;;;6201824;23;20389;-85
2021/07/27 05:22:26;;;;;;;3.90;3.50;;;26.10;57.80;;;;;;6201431;23;20425;-85
2021/07/27 05:25:00;;;;;;;6.10;4.33;;;26.10;57.80;;;;;;6205183;23;20382;-86
2021/07/27 05:28:01;;;;;;;8.00;3.77;;;26.10;57.70;;;;;;6235745;23;20461;-86
2021/07/27 05:30:49;;;;;;;6.10;4.03;;;26.10;57.70;;;;;;6212166;23;20406;-86
2021/07/27 05:33:34;;;;;;;4.90;3.90;;;26.10;57.80;;;;;;6237796;23;20370;-86
2021/07/27 05:42:39;;;;;;;6.37;3.77;;;26.10;57.70;;;;;;6240472;23;20465;-85
2021/07/27 05:45:40;;;;;;;7.60;3.70;;;26.10;57.80;;;;;;6210707;23;20382;-85
2021/07/27 05:48:46;;;;;;;4.60;3.90;;;26.10;58.30;;;;;;6206005;23;20397;-85
2021/07/27 05:51:43;;;;;;;3.27;2.97;;;26.10;57.70;;;;;;6230563;23;20385;-86
2021/07/27 06:01:17;;;;;;;4.63;4.17;;;26.10;57.90;;;;;;6149658;23;20380;-87
2021/07/27 06:07:32;;;;;;;3.97;3.57;;;26.00;57.90;;;;;;6051005;23;20393;-85
2021/07/27 06:10:03;;;;;;;5.37;4.00;;;26.00;58.00;;;;;;6026374;23;20380;-85
2021/07/27 06:12:31;;;;;;;5.17;3.63;;;26.00;58.00;;;;;;6027707;23;20504;-85
2021/07/27 06:14:57;;;;;;;6.50;4.07;;;25.90;58.00;;;;;;6026400;23;20391;-85
2021/07/27 06:17:25;;;;;;;4.20;3.67;;;25.90;58.10;;;;;;6026550;23;20384;-85
2021/07/27 06:20:09;;;;;;;6.93;4.23;;;25.90;58.10;;;;;;6027332;23;20183;-85
2021/07/27 06:22:38;;;;;;;4.80;4.13;;;25.90;58.20;;;;;;6026391;23;20440;-85
2021/07/27 06:25:22;;;;;;;4.93;3.80;;;25.80;58.30;;;;;;6027308;23;20387;-85
2021/07/27 06:28:10;;;;;;;3.40;3.10;;;25.80;58.30;;;;;;6026538;23;20399;-85
2021/07/27 06:44:17;;;;;;;4.53;3.33;;;25.70;58.30;;;;;;6141064;23;20453;-85
2021/07/27 06:46:48;;;;;;;4.40;4.07;;;25.60;58.30;;;;;;6141593;23;20381;-85
2021/07/27 06:49:23;;;;;;;4.70;3.47;;;25.70;58.30;;;;;;6140562;23;20395;-85
2021/07/27 06:51:50;;;;;;;3.87;3.30;;;25.70;58.20;;;;;;6140496;23;20392;-85
2021/07/27 06:54:19;;;;;;;20.13;3.97;;;25.80;58.30;;;;;;6141339;23;20388;-85
2021/07/27 06:56:56;;;;;;;4.47;3.53;;;25.80;58.20;;;;;;6192182;23;20387;-85
2021/07/27 06:59:36;;;;;;;4.03;3.27;;;25.80;58.10;;;;;;6200040;23;20458;-85
2021/07/27 07:02:15;;;;;;;4.03;3.63;;;25.80;58.10;;;;;;6200223;23;20430;-85
2021/07/27 07:04:56;;;;;;;4.60;3.30;;;25.80;58.00;;;;;;6199370;23;20387;-85
2021/07/27 07:21:16;;;;;;;4.20;3.80;;;25.80;58.00;;;;;;6109603;23;20410;-85
2021/07/27 07:24:00;;;;;;;5.30;3.70;;;25.80;58.10;;;;;;6085769;23;20381;-85
2021/07/27 07:32:57;;;;;;;3.67;3.37;;;25.80;58.00;;;;;;6110759;23;20365;-85
2021/07/27 07:42:19;;;;;;;3.93;3.47;;;25.80;58.00;;;;;;6087945;23;20435;-82
2021/07/27 07:51:48;;;;;;;5.07;3.60;;;25.80;58.10;;;;;;6107816;23;20453;-82
2021/07/27 07:54:26;;;;;;;4.20;3.40;;;25.80;58.10;;;;;;6083018;23;20386;-82
2021/07/27 07:56:55;;;;;;;3.50;3.20;;;25.80;58.10;;;;;;6084217;23;20381;-83
2021/07/27 08:02:15;;;;;;;4.63;3.77;;;25.90;58.10;;;;;;6110000;23;20413;-83
2021/07/27 08:04:41;;;;;;;3.40;3.10;;;25.90;58.70;;;;;;6110053;23;20440;-83
2021/07/27 08:07:34;;;;;;;4.10;3.50;;;25.90;58.20;;;;;;6086512;23;20385;-83
2021/07/27 08:10:12;;;;;;;4.17;3.40;;;25.90;58.10;;;;;;6109492;23;20601;-83
2021/07/27 08:12:39;;;;;;;5.20;3.80;;;25.90;58.20;;;;;;6139285;23;20392;-83
2021/07/27 08:15:06;;;;;;;3.47;3.17;;;25.90;58.10;;;;;;6116144;23;20396;-83
2021/07/27 08:24:19;;;;;;;4.00;3.60;;;25.90;58.00;;;;;;6262083;23;20366;-83
2021/07/27 08:26:48;;;;;;;6.93;3.60;;;25.90;58.10;;;;;;6209961;23;20413;-83
2021/07/27 08:29:19;;;;;;;3.87;3.40;;;25.90;58.10;;;;;;6262613;23;20399;-90
2021/07/27 08:32:23;;;;;;;4.53;4.13;;;25.90;58.00;;;;;;6234696;23;20388;-83
2021/07/27 08:38:34;;;;;;;5.87;3.67;;;25.90;57.90;;;;;;6139198;23;20871;-83
2021/07/27 08:41:10;;;;;;;3.90;3.40;;;25.90;58.00;;;;;;6139362;23;20385;-82
2021/07/27 08:43:44;;;;;;;4.50;4.10;;;25.90;58.00;;;;;;6139863;23;20380;-83
2021/07/27 08:46:15;;;;;;;5.07;4.07;;;25.90;58.00;;;;;;6139658;23;20388;-82
2021/07/27 08:48:44;;;;;;;5.53;3.83;;;25.90;57.90;;;;;;6140233;23;20590;-83
2021/07/27 08:51:14;;;;;;;4.40;3.57;;;25.90;57.90;;;;;;6142954;23;20392;-83
2021/07/27 08:53:43;;;;;;;5.37;3.60;;;25.90;57.80;;;;;;6144485;23;20381;-83
2021/07/27 08:56:12;;;;;;;6.27;3.80;;;26.00;57.90;;;;;;6145156;23;20396;-83
2021/07/27 08:58:46;;;;;;;4.07;3.33;;;26.00;57.90;;;;;;6144737;23;20400;-83
2021/07/27 09:01:38;;;;;;;4.70;4.17;;;26.00;57.90;;;;;;6145971;23;20397;-82
2021/07/27 09:04:58;;;;;;;5.00;3.77;;;26.00;57.90;;;;;;6143833;23;20381;-82
2021/07/27 09:17:37;;;;;;;4.30;3.90;;;26.00;57.80;;;;;;6264658;23;20830;-83
2021/07/27 09:20:11;;;;;;;4.13;3.40;;;26.00;57.90;;;;;;6237564;23;20373;-82
2021/07/27 09:23:12;;;;;;;4.43;4.03;;;26.00;57.90;;;;;;6238418;23;20724;-83
2021/07/27 09:25:58;;;;;;;5.40;4.90;;;26.00;57.70;;;;;;6264265;23;20361;-83
2021/07/27 09:29:12;;;;;;;6.53;3.90;;;26.00;57.70;;;;;;6260597;23;20365;-83
2021/07/27 09:31:51;;;;;;;4.63;4.10;;;26.10;57.60;;;;;;6119175;23;20943;-83
2021/07/27 09:34:24;;;;;;;5.17;4.47;;;26.00;57.60;;;;;;6256760;23;20431;-82
2021/07/27 09:37:17;;;;;;;5.07;3.97;;;26.00;57.50;;;;;;6264193;23;20392;-82
2021/07/27 09:39:44;;;;;;;4.47;3.80;;;26.10;57.50;;;;;;6265324;23;20353;-82
2021/07/27 09:42:15;;;;;;;4.40;4.00;;;26.00;57.40;;;;;;6239965;23;20444;-83
2021/07/27 09:44:43;;;;;;;4.80;4.20;;;26.00;57.40;;;;;;6263386;23;20377;-83
2021/07/27 09:47:20;;;;;;;5.30;3.80;;;26.00;57.40;;;;;;6264899;23;20420;-84
2021/07/27 09:49:50;;;;;;;4.90;4.50;;;26.00;57.40;;;;;;6238135;23;20694;-82
2021/07/27 09:52:30;;;;;;;5.13;4.73;;;26.00;57.30;;;;;;6264889;23;20437;-83
2021/07/27 09:54:56;;;;;;;5.03;3.80;;;26.10;57.30;;;;;;6239061;23;20452;-83
2021/07/27 09:57:35;;;;;;;4.73;4.30;;;26.00;57.20;;;;;;6239115;23;20392;-83
2021/07/27 10:00:04;;;;;;;4.53;3.87;;;26.00;57.50;;;;;;6263414;23;20385;-83
2021/07/27 10:09:08;;;;;;;4.47;4.07;;;26.00;56.70;;;;;;6263650;23;20400;-83
2021/07/27 10:11:59;;;;;;;;;;;;;;;;;;;;;
2021/07/27 10:14:37;;;;;;;4.50;4.10;;;26.00;56.80;;;;;;6263595;23;20354;-83
2021/07/27 10:24:50;;;;;;;5.43;4.93;;;26.10;57.00;;;;;;6172963;23;20396;-85
2021/07/27 10:27:29;;;;;;;5.23;4.00;;;26.00;56.90;;;;;;6172320;23;20389;-84
2021/07/27 10:30:14;;;;;;;4.80;4.30;;;26.00;57.00;;;;;;6171809;23;20380;-85
2021/07/27 10:33:02;;;;;;;4.83;4.27;;;26.10;57.00;;;;;;6171248;23;20380;-85
2021/07/27 10:51:55;;;;;;;33.30;15.03;;;26.10;57.30;;;;;;6023345;23;20392;-85
2021/07/27 10:55:29;;;;;;;;;;;;;;;;;;;;;
2021/07/27 10:58:18;;;;;;;46.07;20.50;;;26.10;57.20;;;;;;6024663;23;20388;-85
2021/07/27 11:04:10;;;;;;;81.67;36.03;;;26.10;57.30;;;;;;6064457;23;20397;-85
2021/07/27 11:06:46;;;;;;;64.10;30.27;;;26.10;57.40;;;;;;6058385;23;20442;-85
2021/07/27 11:10:22;;;;;;;90.10;36.90;;;26.10;57.30;;;;;;6024983;23;20404;-84
2021/07/27 11:13:40;;;;;;;;;;;;;;;;;;;;;
2021/07/27 11:16:21;;;;;;;76.30;37.07;;;26.10;57.30;;;;;;6074998;23;20406;-86
2021/07/27 11:19:44;;;;;;;65.97;32.07;;;26.10;57.40;;;;;;6058592;23;20933;-86
2021/07/27 11:22:46;;;;;;;56.23;26.80;;;26.20;57.20;;;;;;6108210;23;20429;-84
2021/07/27 11:29:08;;;;;;;34.63;21.83;;;26.20;56.80;;;;;;6211511;23;20384;-84
2021/07/27 11:39:13;;;;;;;35.20;20.03;;;26.20;56.30;;;;;;6145929;23;20383;-86
2021/07/27 11:48:35;;;;;;;38.47;20.10;;;26.20;56.40;;;;;;6055341;23;20352;-84
2021/07/27 11:54:21;;;;;;;;;;;;;;;;;;;;;
2021/07/27 11:57:17;;;;;;;30.87;12.90;;;26.20;56.50;;;;;;5997840;24;20409;-86
2021/07/27 11:59:57;;;;;;;23.80;13.07;;;26.20;56.40;;;;;;6013961;23;20403;-88
2021/07/27 12:03:14;;;;;;;;;;;;;;;;;;;;;
2021/07/27 12:53:33;;;;;;;12.87;8.10;;;26.20;55.60;;;;;;6081018;23;20470;-86
2021/07/27 12:56:26;;;;;;;11.50;7.53;;;26.20;55.90;;;;;;6057960;23;20410;-86
2021/07/27 12:59:16;;;;;;;11.30;8.00;;;26.20;56.60;;;;;;6057071;23;20408;-85
2021/07/27 13:12:48;;;;;;;15.07;8.63;;;26.20;56.40;;;;;;6020084;23;20388;-89
2021/07/27 14:21:49;;;;;;;6.60;5.63;;;26.20;56.00;;;;;;5939681;24;20490;-94
2021/07/27 14:24:31;;;;;;;5.63;4.97;;;26.20;55.90;;;;;;5941110;24;20895;-88
2021/07/27 14:27:19;;;;;;;6.50;4.60;;;26.20;55.90;;;;;;5981840;23;20388;-88
2021/07/27 14:30:27;;;;;;;6.27;4.97;;;26.20;56.00;;;;;;6000988;23;20400;-87
2021/07/27 14:33:28;;;;;;;7.23;5.47;;;26.20;56.00;;;;;;6053762;23;20391;-89
2021/07/27 14:36:06;;;;;;;10.40;5.30;;;26.20;56.10;;;;;;6079203;23;20379;-88
2021/07/27 14:39:11;;;;;;;6.87;4.77;;;26.20;56.10;;;;;;6078787;23;20425;-85
2021/07/27 14:45:01;;;;;;;7.03;5.00;;;26.20;56.00;;;;;;6160533;23;20691;-87
2021/07/27 14:47:30;;;;;;;6.87;5.33;;;26.20;56.10;;;;;;6169510;23;20560;-87
2021/07/27 14:50:10;;;;;;;7.60;4.93;;;26.20;56.10;;;;;;6140882;23;20372;-88
2021/07/27 14:52:45;;;;;;;6.50;4.77;;;26.20;55.90;;;;;;6202272;23;20416;-87
2021/07/27 14:55:14;;;;;;;6.73;4.83;;;26.30;55.70;;;;;;6233990;23;20396;-87
2021/07/27 14:57:52;;;;;;;6.20;4.80;;;26.20;55.80;;;;;;6208332;23;20418;-88
2021/07/27 15:00:28;;;;;;;6.97;5.40;;;26.30;55.70;;;;;;6259152;23;20366;-88
2021/07/27 15:02:57;;;;;;;6.47;5.10;;;26.30;55.60;;;;;;6260145;23;20435;-86
2021/07/27 15:05:35;;;;;;;7.20;4.70;;;26.30;55.50;;;;;;6232193;23;20384;-86
2021/07/27 15:08:08;;;;;;;5.90;4.93;;;26.30;55.50;;;;;;6234202;23;20377;-86
2021/07/27 15:10:40;;;;;;;7.33;5.33;;;26.30;55.60;;;;;;6232151;23;20400;-86
2021/07/27 15:16:44;;;;;;;4.87;4.47;;;26.30;55.40;;;;;;6261646;23;20396;-86
2021/07/27 15:19:15;;;;;;;4.83;4.43;;;26.30;55.40;;;;;;6261603;23;20377;-86
2021/07/27 15:21:49;;;;;;;7.00;4.67;;;26.30;55.30;;;;;;6226277;23;20452;-87
2021/07/27 15:24:27;;;;;;;5.70;5.10;;;26.40;55.10;;;;;;6231715;23;20380;-85
2021/07/27 15:27:05;;;;;;;6.90;4.33;;;26.30;54.90;;;;;;6234041;23;20445;-85
2021/07/27 15:36:22;;;;;;;7.23;4.90;;;26.40;55.00;;;;;;6139833;23;20387;-85
2021/07/27 15:38:53;;;;;;;5.10;4.33;;;26.40;54.90;;;;;;6137639;23;20395;-86
2021/07/27 15:41:40;;;;;;;5.60;4.53;;;26.30;54.90;;;;;;6138019;23;20380;-86
2021/07/27 15:44:35;;;;;;;6.00;4.47;;;26.30;54.80;;;;;;6139642;23;20388;-86
2021/07/27 15:47:26;;;;;;;5.17;4.77;;;26.30;54.90;;;;;;6138758;23;20392;-85
2021/07/27 15:49:56;;;;;;;4.93;4.30;;;26.30;55.00;;;;;;6129307;23;20389;-85
2021/07/27 15:52:47;;;;;;;5.20;4.53;;;26.30;55.10;;;;;;6138187;23;20416;-84
2021/07/27 15:56:28;;;;;;;;;;;;;;;;;;;;;
2021/07/27 19:33:19;;;;;;;;;;;;;;;;;;;;;
2021/07/27 20:30:28;;;;;;;5.03;4.50;;;26.10;57.10;;;;;;6110033;23;20366;-85
2021/07/27 20:53:48;;;;;;;6.20;5.60;;;26.10;57.40;;;;;;6028497;23;20364;-85
2021/07/27 21:13:20;;;;;;;;;;;;;;;;;;;;;
2021/07/27 21:19:28;;;;;;;6.20;5.60;;;26.10;57.70;;;;;;5971918;24;20390;-86
2021/07/27 21:32:21;;;;;;;;;;;;;;;;;;;;;
2021/07/27 21:38:32;;;;;;;6.43;5.63;;;26.10;58.00;;;;;;5835437;24;20422;-85
2021/07/27 21:41:35;;;;;;;;;;;;;;;;;;;;;
2021/07/27 21:44:11;;;;;;;6.77;5.70;;;26.00;58.40;;;;;;5825347;24;20464;-84
2021/07/27 21:47:05;;;;;;;6.23;5.63;;;25.90;58.70;;;;;;5837293;24;20390;-86
2021/07/27 21:49:38;;;;;;;5.80;5.23;;;26.00;58.50;;;;;;5845513;24;20394;-85
2021/07/27 21:58:48;;;;;;;6.00;5.40;;;26.00;58.60;;;;;;5940207;24;20351;-85
2021/07/27 22:04:23;;;;;;;5.57;4.97;;;25.90;58.40;;;;;;6024127;23;20431;-85
2021/07/27 22:06:54;;;;;;;6.77;6.17;;;26.00;58.30;;;;;;6024148;23;20998;-84
2021/07/27 22:09:31;;;;;;;5.83;5.33;;;26.00;58.20;;;;;;6023007;23;20396;-86
2021/07/27 22:12:57;;;;;;;7.17;6.47;;;26.00;58.30;;;;;;6023502;23;20456;-86
2021/07/27 22:16:14;;;;;;;;;;;;;;;;;;;;;
2021/07/27 22:29:48;;;;;;;9.30;5.63;;;25.90;59.00;;;;;;6109958;23;20682;-86
2021/07/27 22:33:25;;;;;;;;;;;;;;;;;;;;;
2021/07/27 22:39:42;;;;;;;6.40;5.30;;;25.90;58.80;;;;;;6050957;23;20418;-88
2021/07/27 22:43:00;;;;;;;6.37;5.87;;;25.90;58.90;;;;;;6025660;23;20455;-87
2021/07/27 22:46:13;;;;;;;7.20;6.40;;;25.90;58.80;;;;;;6050138;23;20403;-87
2021/07/27 22:49:27;;;;;;;9.17;6.30;;;26.00;58.60;;;;;;6053381;23;20423;-86
2021/07/27 22:53:17;;;;;;;;;;;;;;;;;;;;;
2021/07/27 23:29:17;;;;;;;6.57;5.97;;;25.90;58.60;;;;;;5888061;24;20368;-87
2021/07/27 23:32:51;;;;;;;7.13;6.30;;;25.90;58.70;;;;;;5912438;24;20411;-86
2021/07/27 23:35:51;;;;;;;6.20;5.10;;;25.90;58.90;;;;;;5938249;24;20488;-86
2021/07/27 23:38:54;;;;;;;7.43;6.77;;;25.90;59.10;;;;;;5940211;24;20769;-87
2021/07/27 23:41:44;;;;;;;7.30;6.60;;;25.90;59.10;;;;;;5940228;24;20391;-87
2021/07/27 23:55:02;;;;;;;7.80;6.40;;;25.80;59.80;;;;;;5972567;23;20387;-87
